sensor_id;sensor_type;location;lat;lon;timestamp;pressure;altitude;pressure_sealevel;temperature;humidity
69980;BME280;57318;56.232;43.944;2023-05-19T00:01:07;99413.56;;;17.29;33.58
69980;BME280;57318;56.232;43.944;2023-05-19T00:03:34;99410.72;;;17.22;33.28
69980;BME280;57318;56.232;43.944;2023-05-19T00:06:06;99411.38;;;17.16;33.20
69980;BME280;57318;56.232;43.944;2023-05-19T00:08:36;99415.41;;;17.12;32.90
69980;BME280;57318;56.232;43.944;2023-05-19T00:11:03;99409.53;;;17.08;32.69
69980;BME280;57318;56.232;43.944;2023-05-19T00:13:29;99406.19;;;17.06;32.72
69980;BME280;57318;56.232;43.944;2023-05-19T00:15:55;99412.69;;;17.04;32.67
69980;BME280;57318;56.232;43.944;2023-05-19T00:18:21;99410.00;;;17.04;32.96
69980;BME280;57318;56.232;43.944;2023-05-19T00:20:48;99404.97;;;17.01;32.90
69980;BME280;57318;56.232;43.944;2023-05-19T00:23:13;99404.16;;;17.00;32.58
69980;BME280;57318;56.232;43.944;2023-05-19T00:25:39;99411.03;;;17.03;32.81
69980;BME280;57318;56.232;43.944;2023-05-19T00:28:05;99410.19;;;17.02;32.82
69980;BME280;57318;56.232;43.944;2023-05-19T00:30:31;99400.63;;;17.00;32.76
69980;BME280;57318;56.232;43.944;2023-05-19T00:32:57;99403.31;;;17.00;32.59
69980;BME280;57318;56.232;43.944;2023-05-19T00:35:23;99404.31;;;16.99;32.56
69980;BME280;57318;56.232;43.944;2023-05-19T00:37:49;99407.00;;;16.99;32.21
69980;BME280;57318;56.232;43.944;2023-05-19T00:40:15;99406.00;;;17.00;31.73
69980;BME280;57318;56.232;43.944;2023-05-19T00:42:41;99405.69;;;17.11;31.47
69980;BME280;57318;56.232;43.944;2023-05-19T00:45:07;99411.38;;;17.24;31.16
69980;BME280;57318;56.232;43.944;2023-05-19T00:47:33;99409.06;;;17.38;30.97
69980;BME280;57318;56.232;43.944;2023-05-19T00:49:58;99401.47;;;17.49;30.82
69980;BME280;57318;56.232;43.944;2023-05-19T00:52:25;99403.50;;;17.64;30.62
69980;BME280;57318;56.232;43.944;2023-05-19T00:54:52;99409.69;;;17.81;30.65
69980;BME280;57318;56.232;43.944;2023-05-19T00:57:18;99415.06;;;17.97;30.44
69980;BME280;57318;56.232;43.944;2023-05-19T00:59:45;99409.28;;;18.17;30.17
69980;BME280;57318;56.232;43.944;2023-05-19T01:02:11;99406.41;;;18.35;29.97
69980;BME280;57318;56.232;43.944;2023-05-19T01:04:38;99413.91;;;18.48;29.86
69980;BME280;57318;56.232;43.944;2023-05-19T01:07:06;99414.72;;;18.56;29.66
69980;BME280;57318;56.232;43.944;2023-05-19T01:09:32;99415.19;;;18.60;29.69
69980;BME280;57318;56.232;43.944;2023-05-19T01:11:59;99412.97;;;18.64;29.79
69980;BME280;57318;56.232;43.944;2023-05-19T01:14:27;99414.31;;;18.68;29.70
69980;BME280;57318;56.232;43.944;2023-05-19T01:17:18;99409.75;;;18.68;29.60
69980;BME280;57318;56.232;43.944;2023-05-19T01:20:01;99406.25;;;18.68;29.55
69980;BME280;57318;56.232;43.944;2023-05-19T01:22:44;99414.50;;;18.66;29.73
69980;BME280;57318;56.232;43.944;2023-05-19T01:25:56;99424.75;;;18.63;29.90
69980;BME280;57318;56.232;43.944;2023-05-19T01:31:32;99429.34;;;18.54;30.26
69980;BME280;57318;56.232;43.944;2023-05-19T01:33:59;99404.66;;;18.42;30.74
69980;BME280;57318;56.232;43.944;2023-05-19T01:36:25;99415.63;;;18.32;30.85
69980;BME280;57318;56.232;43.944;2023-05-19T01:38:55;99412.97;;;18.24;31.06
69980;BME280;57318;56.232;43.944;2023-05-19T01:41:22;99407.28;;;18.19;31.21
69980;BME280;57318;56.232;43.944;2023-05-19T01:43:49;99417.19;;;18.18;31.20
69980;BME280;57318;56.232;43.944;2023-05-19T01:46:16;99414.34;;;18.20;31.25
69980;BME280;57318;56.232;43.944;2023-05-19T01:48:42;99413.97;;;18.23;31.11
69980;BME280;57318;56.232;43.944;2023-05-19T01:51:09;99406.25;;;18.28;30.99
69980;BME280;57318;56.232;43.944;2023-05-19T01:53:34;99415.28;;;18.35;30.90
69980;BME280;57318;56.232;43.944;2023-05-19T01:56:00;99403.84;;;18.42;30.88
69980;BME280;57318;56.232;43.944;2023-05-19T01:58:46;99406.00;;;18.46;30.63
69980;BME280;57318;56.232;43.944;2023-05-19T02:01:40;99407.81;;;18.54;30.66
69980;BME280;57318;56.232;43.944;2023-05-19T02:09:17;99404.56;;;18.67;30.72
69980;BME280;57318;56.232;43.944;2023-05-19T02:11:54;99404.22;;;18.70;30.73
69980;BME280;57318;56.232;43.944;2023-05-19T02:14:35;99405.53;;;18.74;30.85
69980;BME280;57318;56.232;43.944;2023-05-19T02:17:03;99405.38;;;18.75;30.90
69980;BME280;57318;56.232;43.944;2023-05-19T02:19:32;99402.31;;;18.79;30.96
69980;BME280;57318;56.232;43.944;2023-05-19T02:21:58;99398.41;;;18.81;30.83
69980;BME280;57318;56.232;43.944;2023-05-19T02:24:24;99406.31;;;18.83;31.09
69980;BME280;57318;56.232;43.944;2023-05-19T02:26:51;99406.81;;;18.86;30.98
69980;BME280;57318;56.232;43.944;2023-05-19T02:29:18;99402.94;;;18.89;31.26
69980;BME280;57318;56.232;43.944;2023-05-19T02:31:44;99399.25;;;18.90;31.61
69980;BME280;57318;56.232;43.944;2023-05-19T02:34:09;99399.25;;;18.90;31.69
69980;BME280;57318;56.232;43.944;2023-05-19T02:36:38;99395.06;;;18.87;31.75
69980;BME280;57318;56.232;43.944;2023-05-19T02:39:05;99396.75;;;18.88;32.10
69980;BME280;57318;56.232;43.944;2023-05-19T02:41:31;99397.91;;;18.86;32.19
69980;BME280;57318;56.232;43.944;2023-05-19T02:43:57;99400.44;;;18.87;32.45
69980;BME280;57318;56.232;43.944;2023-05-19T02:46:23;99398.75;;;18.86;32.66
69980;BME280;57318;56.232;43.944;2023-05-19T02:48:50;99400.78;;;18.84;32.69
69980;BME280;57318;56.232;43.944;2023-05-19T02:51:16;99403.97;;;18.80;33.22
69980;BME280;57318;56.232;43.944;2023-05-19T02:53:42;99407.03;;;18.76;33.21
69980;BME280;57318;56.232;43.944;2023-05-19T02:56:07;99402.69;;;18.75;33.46
69980;BME280;57318;56.232;43.944;2023-05-19T02:58:33;99408.53;;;18.79;33.72
69980;BME280;57318;56.232;43.944;2023-05-19T03:00:59;99405.66;;;18.89;33.68
69980;BME280;57318;56.232;43.944;2023-05-19T03:03:25;99405.22;;;19.00;33.58
69980;BME280;57318;56.232;43.944;2023-05-19T03:05:51;99407.16;;;19.15;33.57
69980;BME280;57318;56.232;43.944;2023-05-19T03:08:17;99404.34;;;19.31;33.50
69980;BME280;57318;56.232;43.944;2023-05-19T03:10:45;99407.75;;;19.48;33.10
69980;BME280;57318;56.232;43.944;2023-05-19T03:13:11;99407.97;;;19.61;33.11
69980;BME280;57318;56.232;43.944;2023-05-19T03:15:37;99404.63;;;19.74;33.00
69980;BME280;57318;56.232;43.944;2023-05-19T03:18:03;99397.91;;;19.78;33.08
69980;BME280;57318;56.232;43.944;2023-05-19T03:20:29;99405.81;;;19.80;33.23
69980;BME280;57318;56.232;43.944;2023-05-19T03:22:58;99401.09;;;19.74;33.44
69980;BME280;57318;56.232;43.944;2023-05-19T03:25:24;99398.50;;;19.65;33.65
69980;BME280;57318;56.232;43.944;2023-05-19T03:27:50;99399.22;;;19.59;33.77
69980;BME280;57318;56.232;43.944;2023-05-19T03:30:16;99402.84;;;19.52;34.29
69980;BME280;57318;56.232;43.944;2023-05-19T03:32:41;99399.66;;;19.48;34.38
69980;BME280;57318;56.232;43.944;2023-05-19T03:35:07;99400.22;;;19.43;34.57
69980;BME280;57318;56.232;43.944;2023-05-19T03:37:33;99395.00;;;19.42;34.76
69980;BME280;57318;56.232;43.944;2023-05-19T03:39:59;99399.25;;;19.36;35.00
69980;BME280;57318;56.232;43.944;2023-05-19T03:42:24;99399.59;;;19.33;35.24
69980;BME280;57318;56.232;43.944;2023-05-19T03:44:50;99400.28;;;19.35;35.97
69980;BME280;57318;56.232;43.944;2023-05-19T03:47:16;99403.81;;;19.36;36.19
69980;BME280;57318;56.232;43.944;2023-05-19T03:49:42;99399.75;;;19.40;36.56
69980;BME280;57318;56.232;43.944;2023-05-19T03:52:08;99403.56;;;19.45;36.56
69980;BME280;57318;56.232;43.944;2023-05-19T03:54:34;99406.84;;;19.56;36.61
69980;BME280;57318;56.232;43.944;2023-05-19T03:57:00;99400.38;;;19.65;36.64
69980;BME280;57318;56.232;43.944;2023-05-19T03:59:27;99407.84;;;19.78;36.70
69980;BME280;57318;56.232;43.944;2023-05-19T04:01:53;99403.69;;;19.90;36.81
69980;BME280;57318;56.232;43.944;2023-05-19T04:04:19;99407.22;;;20.06;36.56
69980;BME280;57318;56.232;43.944;2023-05-19T04:06:45;99412.25;;;20.24;36.85
69980;BME280;57318;56.232;43.944;2023-05-19T04:09:14;99412.91;;;20.41;36.63
69980;BME280;57318;56.232;43.944;2023-05-19T04:11:41;99410.81;;;20.58;36.05
69980;BME280;57318;56.232;43.944;2023-05-19T04:14:07;99403.31;;;20.68;36.03
69980;BME280;57318;56.232;43.944;2023-05-19T04:16:33;99407.19;;;20.80;35.75
69980;BME280;57318;56.232;43.944;2023-05-19T04:18:59;99413.97;;;20.91;35.41
69980;BME280;57318;56.232;43.944;2023-05-19T04:21:25;99413.19;;;20.97;35.63
69980;BME280;57318;56.232;43.944;2023-05-19T04:23:51;99410.56;;;21.04;35.46
69980;BME280;57318;56.232;43.944;2023-05-19T04:26:17;99410.31;;;20.99;35.84
69980;BME280;57318;56.232;43.944;2023-05-19T04:28:46;99409.84;;;20.95;35.65
69980;BME280;57318;56.232;43.944;2023-05-19T04:31:12;99406.63;;;20.85;35.96
69980;BME280;57318;56.232;43.944;2023-05-19T04:33:39;99405.13;;;20.82;36.09
69980;BME280;57318;56.232;43.944;2023-05-19T04:36:06;99401.97;;;20.79;35.55
69980;BME280;57318;56.232;43.944;2023-05-19T04:38:36;99396.13;;;20.75;35.60
69980;BME280;57318;56.232;43.944;2023-05-19T04:41:07;99398.44;;;20.78;35.33
69980;BME280;57318;56.232;43.944;2023-05-19T04:43:37;99399.72;;;20.82;35.03
69980;BME280;57318;56.232;43.944;2023-05-19T04:46:09;99394.56;;;20.87;35.27
69980;BME280;57318;56.232;43.944;2023-05-19T04:48:38;99395.69;;;20.93;35.08
69980;BME280;57318;56.232;43.944;2023-05-19T04:51:07;99391.22;;;21.00;34.87
69980;BME280;57318;56.232;43.944;2023-05-19T04:53:32;99394.59;;;21.09;34.86
69980;BME280;57318;56.232;43.944;2023-05-19T04:55:58;99379.69;;;21.13;34.15
69980;BME280;57318;56.232;43.944;2023-05-19T04:58:25;99383.28;;;21.20;34.10
69980;BME280;57318;56.232;43.944;2023-05-19T05:00:52;99384.81;;;21.30;34.25
69980;BME280;57318;56.232;43.944;2023-05-19T05:03:22;99394.47;;;21.39;34.09
69980;BME280;57318;56.232;43.944;2023-05-19T05:05:47;99387.06;;;21.48;34.05
69980;BME280;57318;56.232;43.944;2023-05-19T05:08:13;99400.22;;;21.51;35.30
69980;BME280;57318;56.232;43.944;2023-05-19T05:10:40;99390.88;;;21.53;35.42
69980;BME280;57318;56.232;43.944;2023-05-19T05:13:07;99389.84;;;21.54;35.71
69980;BME280;57318;56.232;43.944;2023-05-19T05:15:33;99393.03;;;21.65;35.57
69980;BME280;57318;56.232;43.944;2023-05-19T05:18:00;99392.72;;;21.74;35.33
69980;BME280;57318;56.232;43.944;2023-05-19T05:20:26;99394.06;;;21.85;35.08
69980;BME280;57318;56.232;43.944;2023-05-19T05:22:52;99392.44;;;21.97;34.94
69980;BME280;57318;56.232;43.944;2023-05-19T05:25:19;99394.44;;;22.10;34.99
69980;BME280;57318;56.232;43.944;2023-05-19T05:27:46;99398.00;;;22.24;35.06
69980;BME280;57318;56.232;43.944;2023-05-19T05:30:11;99398.97;;;22.38;35.05
69980;BME280;57318;56.232;43.944;2023-05-19T05:32:37;99408.59;;;22.47;34.21
69980;BME280;57318;56.232;43.944;2023-05-19T05:35:03;99405.28;;;22.52;34.17
69980;BME280;57318;56.232;43.944;2023-05-19T05:37:29;99401.97;;;22.57;34.15
69980;BME280;57318;56.232;43.944;2023-05-19T05:39:55;99408.69;;;22.67;34.34
69980;BME280;57318;56.232;43.944;2023-05-19T05:42:20;99406.00;;;22.81;34.10
69980;BME280;57318;56.232;43.944;2023-05-19T05:44:46;99406.66;;;22.89;34.24
69980;BME280;57318;56.232;43.944;2023-05-19T05:47:12;99404.63;;;22.98;34.05
69980;BME280;57318;56.232;43.944;2023-05-19T05:49:38;99398.34;;;23.04;34.27
69980;BME280;57318;56.232;43.944;2023-05-19T05:52:05;99408.41;;;23.11;33.31
69980;BME280;57318;56.232;43.944;2023-05-19T05:54:32;99411.78;;;23.19;33.39
69980;BME280;57318;56.232;43.944;2023-05-19T05:56:58;99403.44;;;23.34;33.19
69980;BME280;57318;56.232;43.944;2023-05-19T05:59:24;99400.94;;;23.53;31.69
69980;BME280;57318;56.232;43.944;2023-05-19T06:01:50;99411.78;;;23.79;31.07
69980;BME280;57318;56.232;43.944;2023-05-19T06:04:16;99408.47;;;23.91;30.74
69980;BME280;57318;56.232;43.944;2023-05-19T06:06:41;99407.41;;;24.12;30.91
69980;BME280;57318;56.232;43.944;2023-05-19T06:09:07;99404.63;;;24.32;31.24
69980;BME280;57318;56.232;43.944;2023-05-19T06:11:33;99415.00;;;24.62;31.05
69980;BME280;57318;56.232;43.944;2023-05-19T06:13:58;99412.59;;;24.85;30.60
69980;BME280;57318;56.232;43.944;2023-05-19T06:16:24;99408.56;;;24.95;30.07
69980;BME280;57318;56.232;43.944;2023-05-19T06:18:50;99403.88;;;25.15;30.03
69980;BME280;57318;56.232;43.944;2023-05-19T06:21:15;99409.75;;;25.44;29.53
69980;BME280;57318;56.232;43.944;2023-05-19T06:23:42;99407.91;;;25.63;28.94
69980;BME280;57318;56.232;43.944;2023-05-19T06:26:08;99411.00;;;25.73;29.00
69980;BME280;57318;56.232;43.944;2023-05-19T06:28:33;99412.41;;;25.76;29.36
69980;BME280;57318;56.232;43.944;2023-05-19T06:30:59;99422.53;;;25.69;29.50
69980;BME280;57318;56.232;43.944;2023-05-19T06:33:25;99431.16;;;25.66;30.06
69980;BME280;57318;56.232;43.944;2023-05-19T06:35:51;99433.28;;;25.57;30.36
69980;BME280;57318;56.232;43.944;2023-05-19T06:38:16;99429.63;;;25.70;30.38
69980;BME280;57318;56.232;43.944;2023-05-19T06:40:42;99431.91;;;26.60;29.63
69980;BME280;57318;56.232;43.944;2023-05-19T06:43:08;99431.44;;;27.43;28.28
69980;BME280;57318;56.232;43.944;2023-05-19T06:45:34;99433.28;;;28.43;27.09
69980;BME280;57318;56.232;43.944;2023-05-19T06:48:00;99437.19;;;29.75;25.41
69980;BME280;57318;56.232;43.944;2023-05-19T06:50:26;99442.13;;;31.17;23.53
69980;BME280;57318;56.232;43.944;2023-05-19T06:52:52;99441.94;;;32.74;21.99
69980;BME280;57318;56.232;43.944;2023-05-19T06:55:18;99446.53;;;33.98;20.21
69980;BME280;57318;56.232;43.944;2023-05-19T06:57:45;99455.59;;;35.05;18.98
69980;BME280;57318;56.232;43.944;2023-05-19T07:00:10;99450.72;;;36.06;17.60
69980;BME280;57318;56.232;43.944;2023-05-19T07:02:37;99458.03;;;36.74;17.40
69980;BME280;57318;56.232;43.944;2023-05-19T07:05:03;99456.91;;;36.51;17.06
69980;BME280;57318;56.232;43.944;2023-05-19T07:07:30;99447.22;;;35.95;17.27
69980;BME280;57318;56.232;43.944;2023-05-19T07:09:55;99451.84;;;35.75;17.28
69980;BME280;57318;56.232;43.944;2023-05-19T07:12:21;99452.53;;;35.91;17.25
69980;BME280;57318;56.232;43.944;2023-05-19T07:14:47;99447.50;;;35.99;17.00
69980;BME280;57318;56.232;43.944;2023-05-19T07:17:12;99453.13;;;36.12;17.32
69980;BME280;57318;56.232;43.944;2023-05-19T07:19:39;99457.97;;;36.55;17.00
69980;BME280;57318;56.232;43.944;2023-05-19T07:22:04;99453.50;;;36.83;16.84
69980;BME280;57318;56.232;43.944;2023-05-19T07:24:30;99458.38;;;37.49;16.26
69980;BME280;57318;56.232;43.944;2023-05-19T07:26:56;99465.75;;;38.05;15.61
69980;BME280;57318;56.232;43.944;2023-05-19T07:29:22;99458.03;;;38.63;15.18
69980;BME280;57318;56.232;43.944;2023-05-19T07:31:48;99467.19;;;38.63;15.27
69980;BME280;57318;56.232;43.944;2023-05-19T07:34:19;99466.41;;;38.99;14.92
69980;BME280;57318;56.232;43.944;2023-05-19T07:36:46;99465.31;;;39.37;14.95
69980;BME280;57318;56.232;43.944;2023-05-19T07:39:12;99466.94;;;39.38;15.19
69980;BME280;57318;56.232;43.944;2023-05-19T07:41:37;99453.03;;;39.02;15.83
69980;BME280;57318;56.232;43.944;2023-05-19T07:44:03;99455.09;;;39.69;15.57
69980;BME280;57318;56.232;43.944;2023-05-19T07:46:35;99462.06;;;40.43;16.17
69980;BME280;57318;56.232;43.944;2023-05-19T07:49:02;99469.13;;;40.89;16.37
69980;BME280;57318;56.232;43.944;2023-05-19T07:51:28;99468.47;;;41.62;15.75
69980;BME280;57318;56.232;43.944;2023-05-19T07:53:54;99473.44;;;42.30;15.01
69980;BME280;57318;56.232;43.944;2023-05-19T07:56:20;99465.00;;;42.78;15.00
69980;BME280;57318;56.232;43.944;2023-05-19T07:58:46;99473.06;;;42.41;14.82
69980;BME280;57318;56.232;43.944;2023-05-19T08:01:11;99472.88;;;41.98;14.60
69980;BME280;57318;56.232;43.944;2023-05-19T08:03:37;99471.03;;;42.20;14.65
69980;BME280;57318;56.232;43.944;2023-05-19T08:06:03;99463.44;;;42.29;14.42
69980;BME280;57318;56.232;43.944;2023-05-19T08:08:29;99485.28;;;42.66;13.84
69980;BME280;57318;56.232;43.944;2023-05-19T08:10:54;99478.09;;;42.86;13.86
69980;BME280;57318;56.232;43.944;2023-05-19T08:13:20;99478.09;;;43.16;13.14
69980;BME280;57318;56.232;43.944;2023-05-19T08:15:46;99472.75;;;43.23;13.53
69980;BME280;57318;56.232;43.944;2023-05-19T08:18:12;99471.06;;;42.80;13.81
69980;BME280;57318;56.232;43.944;2023-05-19T08:20:37;99474.56;;;42.38;13.99
69980;BME280;57318;56.232;43.944;2023-05-19T08:23:03;99468.25;;;42.50;13.41
69980;BME280;57318;56.232;43.944;2023-05-19T08:25:29;99471.34;;;42.87;13.08
69980;BME280;57318;56.232;43.944;2023-05-19T08:27:55;99464.75;;;42.91;13.44
69980;BME280;57318;56.232;43.944;2023-05-19T08:30:21;99474.63;;;42.89;12.96
69980;BME280;57318;56.232;43.944;2023-05-19T08:32:47;99475.28;;;42.26;13.75
69980;BME280;57318;56.232;43.944;2023-05-19T08:35:13;99479.56;;;42.53;13.36
69980;BME280;57318;56.232;43.944;2023-05-19T08:37:38;99473.28;;;42.27;14.01
69980;BME280;57318;56.232;43.944;2023-05-19T08:40:05;99478.72;;;42.23;13.93
69980;BME280;57318;56.232;43.944;2023-05-19T08:42:33;99476.16;;;42.78;13.68
69980;BME280;57318;56.232;43.944;2023-05-19T08:45:00;99474.41;;;42.34;13.67
69980;BME280;57318;56.232;43.944;2023-05-19T08:47:30;99480.19;;;42.29;13.53
69980;BME280;57318;56.232;43.944;2023-05-19T08:50:03;99465.16;;;42.04;14.09
69980;BME280;57318;56.232;43.944;2023-05-19T08:52:50;99474.09;;;41.71;14.28
69980;BME280;57318;56.232;43.944;2023-05-19T08:58:02;99480.97;;;41.74;14.13
69980;BME280;57318;56.232;43.944;2023-05-19T09:00:29;99468.28;;;42.03;14.21
69980;BME280;57318;56.232;43.944;2023-05-19T09:02:55;99471.25;;;41.80;14.33
69980;BME280;57318;56.232;43.944;2023-05-19T09:05:22;99475.19;;;41.26;15.02
69980;BME280;57318;56.232;43.944;2023-05-19T09:07:48;99482.78;;;41.43;14.46
69980;BME280;57318;56.232;43.944;2023-05-19T09:10:14;99484.19;;;41.06;14.90
69980;BME280;57318;56.232;43.944;2023-05-19T09:12:43;99487.00;;;41.15;14.53
69980;BME280;57318;56.232;43.944;2023-05-19T09:15:16;99490.25;;;41.08;14.84
69980;BME280;57318;56.232;43.944;2023-05-19T09:17:45;99482.88;;;40.94;14.65
69980;BME280;57318;56.232;43.944;2023-05-19T09:20:13;99477.09;;;40.73;15.14
69980;BME280;57318;56.232;43.944;2023-05-19T09:22:42;99475.91;;;40.66;15.59
69980;BME280;57318;56.232;43.944;2023-05-19T09:25:26;99479.47;;;40.57;15.62
69980;BME280;57318;56.232;43.944;2023-05-19T09:27:53;99476.66;;;39.95;16.36
69980;BME280;57318;56.232;43.944;2023-05-19T09:30:19;99469.38;;;39.99;16.70
69980;BME280;57318;56.232;43.944;2023-05-19T09:32:46;99466.53;;;40.21;16.66
69980;BME280;57318;56.232;43.944;2023-05-19T09:35:12;99477.97;;;40.51;16.42
69980;BME280;57318;56.232;43.944;2023-05-19T09:37:39;99475.97;;;40.43;16.39
69980;BME280;57318;56.232;43.944;2023-05-19T09:40:09;99469.50;;;39.71;17.37
69980;BME280;57318;56.232;43.944;2023-05-19T09:42:37;99471.38;;;38.75;18.51
69980;BME280;57318;56.232;43.944;2023-05-19T09:45:03;99465.69;;;37.78;19.17
69980;BME280;57318;56.232;43.944;2023-05-19T09:47:38;99468.22;;;36.30;20.75
69980;BME280;57318;56.232;43.944;2023-05-19T09:50:10;99467.81;;;35.44;21.80
69980;BME280;57318;56.232;43.944;2023-05-19T09:52:37;99460.94;;;34.86;22.91
69980;BME280;57318;56.232;43.944;2023-05-19T09:55:04;99458.41;;;33.84;24.21
69980;BME280;57318;56.232;43.944;2023-05-19T09:57:33;99461.84;;;33.07;25.08
69980;BME280;57318;56.232;43.944;2023-05-19T10:02:40;99452.94;;;31.24;27.81
69980;BME280;57318;56.232;43.944;2023-05-19T10:05:14;99446.31;;;30.36;29.00
69980;BME280;57318;56.232;43.944;2023-05-19T10:07:43;99443.81;;;29.62;29.93
69980;BME280;57318;56.232;43.944;2023-05-19T10:10:13;99450.50;;;29.08;30.49
69980;BME280;57318;56.232;43.944;2023-05-19T10:12:40;99441.22;;;28.57;31.05
69980;BME280;57318;56.232;43.944;2023-05-19T10:15:08;99452.56;;;28.13;31.59
69980;BME280;57318;56.232;43.944;2023-05-19T10:17:37;99447.22;;;27.95;31.68
69980;BME280;57318;56.232;43.944;2023-05-19T10:20:06;99448.25;;;27.82;31.40
69980;BME280;57318;56.232;43.944;2023-05-19T10:22:33;99447.88;;;27.66;31.53
69980;BME280;57318;56.232;43.944;2023-05-19T10:24:59;99454.44;;;27.89;31.41
69980;BME280;57318;56.232;43.944;2023-05-19T10:27:26;99459.91;;;28.24;30.79
69980;BME280;57318;56.232;43.944;2023-05-19T10:29:54;99446.69;;;28.57;30.42
69980;BME280;57318;56.232;43.944;2023-05-19T10:32:25;99452.63;;;29.06;29.51
69980;BME280;57318;56.232;43.944;2023-05-19T10:39:53;99451.09;;;31.35;26.29
69980;BME280;57318;56.232;43.944;2023-05-19T10:47:34;99447.38;;;33.99;22.41
69980;BME280;57318;56.232;43.944;2023-05-19T10:50:01;99446.81;;;33.25;23.18
69980;BME280;57318;56.232;43.944;2023-05-19T10:52:26;99453.53;;;32.86;23.86
69980;BME280;57318;56.232;43.944;2023-05-19T10:54:55;99439.63;;;33.55;22.81
69980;BME280;57318;56.232;43.944;2023-05-19T10:57:26;99458.09;;;34.31;21.93
69980;BME280;57318;56.232;43.944;2023-05-19T10:59:58;99457.16;;;34.67;21.84
69980;BME280;57318;56.232;43.944;2023-05-19T11:02:42;99448.28;;;34.85;21.37
69980;BME280;57318;56.232;43.944;2023-05-19T11:05:13;99454.31;;;35.77;20.11
69980;BME280;57318;56.232;43.944;2023-05-19T11:07:42;99448.16;;;36.15;19.47
69980;BME280;57318;56.232;43.944;2023-05-19T11:10:09;99449.28;;;36.86;19.08
69980;BME280;57318;56.232;43.944;2023-05-19T11:12:43;99448.41;;;37.29;18.33
69980;BME280;57318;56.232;43.944;2023-05-19T11:15:13;99452.91;;;37.44;18.08
69980;BME280;57318;56.232;43.944;2023-05-19T11:17:41;99451.78;;;37.45;18.17
69980;BME280;57318;56.232;43.944;2023-05-19T11:20:22;99457.44;;;36.53;18.71
69980;BME280;57318;56.232;43.944;2023-05-19T11:28:06;99443.31;;;34.72;20.66
69980;BME280;57318;56.232;43.944;2023-05-19T11:30:32;99446.91;;;34.83;20.90
69980;BME280;57318;56.232;43.944;2023-05-19T11:32:57;99444.78;;;35.14;20.44
69980;BME280;57318;56.232;43.944;2023-05-19T11:35:23;99440.31;;;35.23;20.47
69980;BME280;57318;56.232;43.944;2023-05-19T11:37:53;99450.09;;;35.00;21.00
69980;BME280;57318;56.232;43.944;2023-05-19T11:40:20;99442.38;;;34.32;21.82
69980;BME280;57318;56.232;43.944;2023-05-19T11:42:46;99440.78;;;33.90;22.47
69980;BME280;57318;56.232;43.944;2023-05-19T11:45:11;99448.44;;;33.21;23.39
69980;BME280;57318;56.232;43.944;2023-05-19T11:47:37;99449.38;;;32.68;24.00
69980;BME280;57318;56.232;43.944;2023-05-19T11:50:03;99443.53;;;31.74;25.04
69980;BME280;57318;56.232;43.944;2023-05-19T11:52:30;99446.16;;;31.09;25.73
69980;BME280;57318;56.232;43.944;2023-05-19T11:54:58;99451.84;;;30.58;27.16
69980;BME280;57318;56.232;43.944;2023-05-19T11:57:25;99455.53;;;30.08;28.33
69980;BME280;57318;56.232;43.944;2023-05-19T11:59:50;99457.16;;;29.75;28.87
69980;BME280;57318;56.232;43.944;2023-05-19T12:02:19;99451.41;;;29.26;30.01
69980;BME280;57318;56.232;43.944;2023-05-19T12:04:47;99458.41;;;28.93;30.77
69980;BME280;57318;56.232;43.944;2023-05-19T12:07:19;99469.66;;;28.32;32.34
69980;BME280;57318;56.232;43.944;2023-05-19T12:09:45;99466.09;;;28.20;32.68
69980;BME280;57318;56.232;43.944;2023-05-19T12:12:13;99480.34;;;28.46;32.40
69980;BME280;57318;56.232;43.944;2023-05-19T12:14:40;99486.16;;;28.73;32.14
69980;BME280;57318;56.232;43.944;2023-05-19T12:17:12;99484.91;;;28.92;32.15
69980;BME280;57318;56.232;43.944;2023-05-19T12:19:40;99488.28;;;29.11;31.81
69980;BME280;57318;56.232;43.944;2023-05-19T12:22:07;99474.03;;;29.38;31.05
69980;BME280;57318;56.232;43.944;2023-05-19T12:24:34;99486.81;;;29.32;31.48
69980;BME280;57318;56.232;43.944;2023-05-19T12:27:16;99503.84;;;29.51;31.65
69980;BME280;57318;56.232;43.944;2023-05-19T12:29:48;99504.53;;;29.59;31.64
69980;BME280;57318;56.232;43.944;2023-05-19T12:32:14;99511.00;;;29.52;31.87
69980;BME280;57318;56.232;43.944;2023-05-19T12:34:40;99504.47;;;29.25;32.32
69980;BME280;57318;56.232;43.944;2023-05-19T12:37:06;99527.78;;;29.15;32.48
69980;BME280;57318;56.232;43.944;2023-05-19T12:39:32;99521.94;;;28.48;33.48
69980;BME280;57318;56.232;43.944;2023-05-19T12:42:08;99522.53;;;28.14;33.93
69980;BME280;57318;56.232;43.944;2023-05-19T12:44:42;99529.22;;;27.88;34.40
69980;BME280;57318;56.232;43.944;2023-05-19T12:47:11;99532.78;;;27.46;34.75
69980;BME280;57318;56.232;43.944;2023-05-19T12:49:53;99526.56;;;26.72;36.11
69980;BME280;57318;56.232;43.944;2023-05-19T12:52:19;99539.06;;;26.10;37.04
69980;BME280;57318;56.232;43.944;2023-05-19T12:55:09;99530.03;;;25.78;37.46
69980;BME280;57318;56.232;43.944;2023-05-19T12:57:48;99535.22;;;25.54;37.89
69980;BME280;57318;56.232;43.944;2023-05-19T13:00:19;99556.47;;;25.26;38.25
69980;BME280;57318;56.232;43.944;2023-05-19T13:05:47;99557.50;;;24.73;38.80
69980;BME280;57318;56.232;43.944;2023-05-19T13:08:17;99554.59;;;24.34;39.03
69980;BME280;57318;56.232;43.944;2023-05-19T13:10:45;99570.06;;;24.20;39.20
69980;BME280;57318;56.232;43.944;2023-05-19T13:13:12;99568.81;;;24.29;39.06
69980;BME280;57318;56.232;43.944;2023-05-19T13:15:44;99581.34;;;24.17;39.08
69980;BME280;57318;56.232;43.944;2023-05-19T13:18:11;99584.94;;;23.49;40.46
69980;BME280;57318;56.232;43.944;2023-05-19T13:20:42;99584.16;;;22.79;42.03
69980;BME280;57318;56.232;43.944;2023-05-19T13:23:09;99575.97;;;22.37;42.94
69980;BME280;57318;56.232;43.944;2023-05-19T13:25:36;99586.69;;;21.80;44.20